createdAt,value
2024-01-09T00:02:17.757Z,103062.16
2024-01-09T00:04:44.278Z,103058.78
2024-01-09T00:07:10.841Z,103063.81
2024-01-09T00:09:37.671Z,103061.31
2024-01-09T00:12:04.572Z,103063.00
2024-01-09T00:14:31.169Z,103062.16
2024-01-09T00:16:57.692Z,103068.03
2024-01-09T00:19:24.267Z,103075.56
2024-01-09T00:21:51.878Z,103073.03
2024-01-09T00:24:18.400Z,103075.53
2024-01-09T00:26:45.592Z,103071.38
2024-01-09T00:29:12.456Z,103070.53
2024-01-09T00:31:39.110Z,103073.03
2024-01-09T00:34:05.757Z,103081.41
2024-01-09T00:36:32.344Z,103081.41
2024-01-09T00:38:58.935Z,103089.78
2024-01-09T00:41:25.498Z,103089.78
2024-01-09T00:43:52.151Z,103093.97
2024-01-09T00:46:18.777Z,103102.38
2024-01-09T00:48:45.526Z,103097.34
2024-01-09T00:51:12.229Z,103104.88
2024-01-09T00:53:38.801Z,103110.75
2024-01-09T00:56:06.151Z,103109.06
2024-01-09T00:58:32.748Z,103104.88
2024-01-09T01:01:00.241Z,103108.22
2024-01-09T01:03:26.994Z,103109.91
2024-01-09T01:05:53.718Z,103109.88
2024-01-09T01:08:20.211Z,103119.94
2024-01-09T01:10:46.791Z,103118.28
2024-01-09T01:13:13.390Z,103111.59
2024-01-09T01:15:39.889Z,103123.31
2024-01-09T01:18:06.572Z,103119.13
2024-01-09T01:20:33.566Z,103115.75
2024-01-09T01:23:00.168Z,103124.97
2024-01-09T01:25:26.917Z,103117.44
2024-01-09T01:27:53.887Z,103116.59
2024-01-09T01:30:20.518Z,103119.94
2024-01-09T01:32:47.281Z,103108.22
2024-01-09T01:35:13.926Z,103114.09
2024-01-09T01:37:40.587Z,103128.31
2024-01-09T01:40:07.745Z,103119.94
2024-01-09T01:42:34.235Z,103116.59
2024-01-09T01:45:00.750Z,103122.47
2024-01-09T01:47:27.712Z,103121.63
2024-01-09T01:49:55.061Z,103126.63
2024-01-09T01:52:21.585Z,103126.63
2024-01-09T01:54:48.296Z,103134.16
2024-01-09T01:57:15.745Z,103139.16
2024-01-09T01:59:46.639Z,103134.16
2024-01-09T02:02:15.143Z,103139.16
2024-01-09T02:04:42.263Z,103134.16
2024-01-09T02:07:09.042Z,103119.91
2024-01-09T02:09:37.514Z,103136.63
2024-01-09T02:12:05.320Z,103129.09
2024-01-09T02:14:31.970Z,103125.75
2024-01-09T02:16:58.714Z,103133.28
2024-01-09T02:19:25.365Z,103127.44
2024-01-09T02:21:52.396Z,103126.59
2024-01-09T02:24:19.641Z,103135.81
2024-01-09T02:26:59.970Z,103134.97
2024-01-09T02:29:34.118Z,103128.28
2024-01-09T02:32:01.350Z,103136.63
2024-01-09T02:34:30.591Z,103124.06
2024-01-09T02:36:57.369Z,103133.28
2024-01-09T02:39:23.862Z,103119.88
2024-01-09T02:41:51.987Z,103129.06
2024-01-09T02:44:19.638Z,103119.88
2024-01-09T02:46:46.204Z,103124.88
2024-01-09T02:49:12.867Z,103128.22
2024-01-09T02:51:39.503Z,103119.00
2024-01-09T02:54:06.202Z,103124.88
2024-01-09T02:56:35.033Z,103125.69
2024-01-09T02:59:01.579Z,103127.38
2024-01-09T03:01:28.144Z,103125.69
2024-01-09T03:03:54.807Z,103116.50
2024-01-09T03:06:21.748Z,103109.78
2024-01-09T03:08:51.231Z,103118.16
2024-01-09T03:11:18.045Z,103108.97
2024-01-09T03:13:44.626Z,103111.47
2024-01-09T03:16:14.960Z,103110.63
2024-01-09T03:18:44.977Z,103108.97
2024-01-09T03:21:12.401Z,103108.13
2024-01-09T03:23:39.098Z,103119.00
2024-01-09T03:26:05.683Z,103112.34
2024-01-09T03:28:32.283Z,103114.84
2024-01-09T03:30:58.818Z,103108.94
2024-01-09T03:33:25.458Z,103113.13
2024-01-09T03:35:52.128Z,103116.50
2024-01-09T03:38:18.671Z,103106.44
2024-01-09T03:40:45.388Z,103117.31
2024-01-09T03:43:11.913Z,103115.63
2024-01-09T03:45:38.554Z,103113.94
2024-01-09T03:48:05.582Z,103103.09
2024-01-09T03:50:32.225Z,103110.59
2024-01-09T03:52:58.711Z,103108.94
2024-01-09T03:55:26.432Z,103110.63
2024-01-09T03:57:52.916Z,103115.63
2024-01-09T04:00:19.569Z,103116.50
2024-01-09T04:02:46.251Z,103111.47
2024-01-09T04:05:12.910Z,103108.94
2024-01-09T04:07:39.540Z,103123.97
2024-01-09T04:10:06.347Z,103123.13
2024-01-09T04:12:32.896Z,103123.16
2024-01-09T04:14:59.517Z,103127.34
2024-01-09T04:17:26.303Z,103125.66
2024-01-09T04:19:52.828Z,103129.00
2024-01-09T04:22:19.371Z,103130.66
2024-01-09T04:24:45.855Z,103134.84
2024-01-09T04:27:12.410Z,103130.66
2024-01-09T04:29:38.916Z,103132.31
2024-01-09T04:32:05.595Z,103135.69
2024-01-09T04:34:32.187Z,103130.66
2024-01-09T04:36:58.766Z,103134.84
2024-01-09T04:39:25.307Z,103142.34
2024-01-09T04:41:51.856Z,103133.16
2024-01-09T04:44:18.377Z,103126.44
2024-01-09T04:46:44.939Z,103123.09
2024-01-09T04:49:11.582Z,103122.25
2024-01-09T04:51:38.410Z,103123.06
2024-01-09T04:54:04.944Z,103112.19
2024-01-09T04:56:31.456Z,103112.19
2024-01-09T04:58:58.037Z,103104.66
2024-01-09T05:01:24.681Z,103112.19
2024-01-09T05:03:52.111Z,103103.00
2024-01-09T05:06:19.868Z,103102.16
2024-01-09T05:08:48.171Z,103103.81
2024-01-09T05:11:18.882Z,103106.31
2024-01-09T05:13:46.412Z,103115.53
2024-01-09T05:16:12.916Z,103110.50
2024-01-09T05:18:39.510Z,103104.63
2024-01-09T05:21:06.148Z,103120.56
2024-01-09T05:23:32.782Z,103114.69
2024-01-09T05:25:59.436Z,103114.69
2024-01-09T05:28:26.002Z,103118.84
2024-01-09T05:30:52.582Z,103127.22
2024-01-09T05:33:19.870Z,103128.06
2024-01-09T05:35:46.654Z,103119.69
2024-01-09T05:38:18.630Z,103118.84
2024-01-09T05:40:49.066Z,103127.25
2024-01-09T05:43:15.656Z,103125.56
2024-01-09T05:45:42.188Z,103116.38
2024-01-09T05:48:09.180Z,103118.06
2024-01-09T05:50:36.105Z,103124.72
2024-01-09T05:53:03.469Z,103122.22
2024-01-09T05:55:30.139Z,103115.53
2024-01-09T05:57:56.699Z,103116.34
2024-01-09T06:00:23.344Z,103118.84
2024-01-09T06:02:49.930Z,103115.53
2024-01-09T06:05:16.583Z,103117.19
2024-01-09T06:07:43.141Z,103116.34
2024-01-09T06:10:10.219Z,103118.06
2024-01-09T06:12:36.833Z,103110.53
2024-01-09T06:15:04.639Z,103113.03
2024-01-09T06:17:31.394Z,103109.72
2024-01-09T06:19:58.903Z,103111.44
2024-01-09T06:22:25.557Z,103108.06
2024-01-09T06:24:52.155Z,103113.94
2024-01-09T06:27:18.712Z,103117.25
2024-01-09T06:29:45.379Z,103118.09
2024-01-09T06:32:12.125Z,103119.78
2024-01-09T06:34:38.745Z,103111.44
2024-01-09T06:37:05.410Z,103116.44
2024-01-09T06:39:31.988Z,103114.78
2024-01-09T06:41:58.628Z,103123.16
2024-01-09T06:44:25.271Z,103129.91
2024-01-09T06:46:51.867Z,103128.22
2024-01-09T06:49:18.424Z,103129.88
2024-01-09T06:51:45.421Z,103131.56
2024-01-09T06:54:12.082Z,103135.78
2024-01-09T06:56:45.271Z,103144.09
2024-01-09T06:59:12.278Z,103159.16
2024-01-09T07:01:39.590Z,103157.50
2024-01-09T07:04:10.007Z,103152.50
2024-01-09T07:06:36.754Z,103150.84
2024-01-09T07:09:04.119Z,103159.19
2024-01-09T07:11:30.880Z,103165.91
2024-01-09T07:13:57.518Z,103164.25
2024-01-09T07:16:24.256Z,103165.94
2024-01-09T07:18:50.951Z,103173.50
2024-01-09T07:21:17.542Z,103170.97
2024-01-09T07:23:45.586Z,103166.81
2024-01-09T07:26:12.194Z,103168.47
2024-01-09T07:28:39.552Z,103161.78
2024-01-09T07:31:06.254Z,103161.78
2024-01-09T07:33:32.941Z,103159.31
2024-01-09T07:36:05.260Z,103161.81
2024-01-09T07:38:31.891Z,103161.81
2024-01-09T07:41:00.772Z,103161.81
2024-01-09T07:43:27.938Z,103166.03
2024-01-09T07:45:54.486Z,103170.25
2024-01-09T07:48:21.864Z,103166.06
2024-01-09T07:50:48.422Z,103173.63
2024-01-09T07:53:15.101Z,103165.22
2024-01-09T07:55:41.625Z,103168.59
2024-01-09T07:58:08.163Z,103166.06
2024-01-09T08:00:34.965Z,103164.38
2024-01-09T08:03:04.697Z,103161.81
2024-01-09T08:05:31.453Z,103171.88
2024-01-09T08:07:58.015Z,103170.19
2024-01-09T08:10:24.529Z,103171.88
2024-01-09T08:12:51.080Z,103171.00
2024-01-09T08:15:17.736Z,103174.34
2024-01-09T08:17:44.477Z,103173.50
2024-01-09T08:20:11.415Z,103174.31
2024-01-09T08:22:38.277Z,103176.78
2024-01-09T08:25:05.928Z,103184.31
2024-01-09T08:27:32.565Z,103176.75
2024-01-09T08:29:59.172Z,103190.16
2024-01-09T08:32:26.498Z,103185.09
2024-01-09T08:34:53.336Z,103179.16
2024-01-09T08:37:20.523Z,103185.00
2024-01-09T08:39:47.026Z,103192.53
2024-01-09T08:42:13.604Z,103186.56
2024-01-09T08:44:40.225Z,103189.84
2024-01-09T08:47:06.858Z,103191.53
2024-01-09T08:49:33.434Z,103196.50
2024-01-09T08:52:00.173Z,103193.09
2024-01-09T08:54:26.740Z,103195.53
2024-01-09T08:56:53.376Z,103208.94
2024-01-09T08:59:19.907Z,103203.81
2024-01-09T09:01:46.421Z,103202.06
2024-01-09T09:04:13.036Z,103202.78
2024-01-09T09:06:39.737Z,103208.63
2024-01-09T09:09:06.412Z,103207.75
2024-01-09T09:11:34.107Z,103196.81
2024-01-09T09:14:00.936Z,103206.00
2024-01-09T09:16:30.698Z,103205.88
2024-01-09T09:18:57.526Z,103210.06
2024-01-09T09:21:24.379Z,103214.25
2024-01-09T09:23:50.986Z,103206.59
2024-01-09T09:26:17.776Z,103204.00
2024-01-09T09:28:59.631Z,103200.63
2024-01-09T09:31:30.796Z,103202.25
2024-01-09T09:33:57.804Z,103202.94
2024-01-09T09:36:25.085Z,103201.16
2024-01-09T09:38:54.726Z,103195.03
2024-01-09T09:41:21.784Z,103192.44
2024-01-09T09:43:51.948Z,103189.75
2024-01-09T09:46:25.137Z,103182.88
2024-01-09T09:48:54.101Z,103182.72
2024-01-09T09:51:23.400Z,103184.25
2024-01-09T09:53:53.993Z,103185.81
2024-01-09T09:56:21.047Z,103186.56
2024-01-09T09:58:47.626Z,103180.56
2024-01-09T10:01:15.304Z,103169.47
2024-01-09T10:03:58.154Z,103177.72
2024-01-09T10:06:26.468Z,103174.25
2024-01-09T10:08:55.647Z,103170.75
2024-01-09T10:11:22.431Z,103165.56
2024-01-09T10:13:49.920Z,103158.75
2024-01-09T10:16:16.422Z,103165.56
2024-01-09T10:18:43.117Z,103162.91
2024-01-09T10:21:09.933Z,103161.09
2024-01-09T10:23:39.560Z,103154.13
2024-01-09T10:26:11.185Z,103154.19
2024-01-09T10:28:38.104Z,103145.69
2024-01-09T10:31:07.749Z,103149.81
2024-01-09T10:33:34.860Z,103154.13
2024-01-09T10:36:01.638Z,103151.53
2024-01-09T10:38:28.338Z,103142.00
2024-01-09T10:40:57.633Z,103140.88
2024-01-09T10:43:28.032Z,103144.03
2024-01-09T10:45:54.890Z,103145.56
2024-01-09T10:48:22.801Z,103151.34
2024-01-09T10:50:52.471Z,103146.19
2024-01-09T10:53:21.384Z,103142.63
2024-01-09T10:55:50.436Z,103143.34
2024-01-09T10:58:18.257Z,103141.38
2024-01-09T11:00:45.966Z,103142.88
2024-01-09T11:03:12.812Z,103135.16
2024-01-09T11:05:39.952Z,103140.03
2024-01-09T11:08:11.642Z,103134.00
2024-01-09T11:10:39.039Z,103133.94
2024-01-09T11:13:07.826Z,103136.25
2024-01-09T11:15:39.246Z,103132.75
2024-01-09T11:18:10.082Z,103127.47
2024-01-09T11:20:36.827Z,103133.25
2024-01-09T11:23:03.478Z,103126.69
2024-01-09T11:25:35.032Z,103131.72
2024-01-09T11:28:01.739Z,103123.94
2024-01-09T11:30:34.512Z,103116.91
2024-01-09T11:33:33.255Z,103111.69
2024-01-09T11:36:07.230Z,103123.31
2024-01-09T11:38:34.752Z,103108.03
2024-01-09T11:41:08.412Z,103116.16
2024-01-09T11:44:00.260Z,103112.59
2024-01-09T11:46:29.078Z,103108.22
2024-01-09T11:48:56.543Z,103114.84
2024-01-09T11:51:24.894Z,103111.69
2024-01-09T11:53:51.866Z,103107.31
2024-01-09T11:56:19.854Z,103108.22
2024-01-09T11:58:48.694Z,103118.31
2024-01-09T12:01:15.305Z,103109.41
2024-01-09T12:03:41.902Z,103098.97
2024-01-09T12:06:08.553Z,103102.44
2024-01-09T12:08:35.301Z,103091.38
2024-01-09T12:11:02.356Z,103081.91
2024-01-09T12:13:28.864Z,103086.91
2024-01-09T12:15:55.691Z,103084.84
2024-01-09T12:18:22.428Z,103083.94
2024-01-09T12:20:49.882Z,103082.06
2024-01-09T12:23:16.988Z,103075.41
2024-01-09T12:25:45.521Z,103074.41
2024-01-09T12:28:12.505Z,103070.38
2024-01-09T12:30:39.103Z,103071.84
2024-01-09T12:33:06.131Z,103067.31
2024-01-09T12:35:32.945Z,103067.16
2024-01-09T12:37:59.619Z,103067.91
2024-01-09T12:40:26.178Z,103067.69
2024-01-09T12:43:12.180Z,103058.97
2024-01-09T12:45:40.089Z,103063.03
2024-01-09T12:48:10.014Z,103054.69
2024-01-09T12:50:36.927Z,103055.69
2024-01-09T12:53:04.184Z,103058.25
2024-01-09T12:55:30.719Z,103053.16
2024-01-09T12:57:59.152Z,103057.28
2024-01-09T13:00:27.264Z,103058.03
2024-01-09T13:02:53.868Z,103057.03
2024-01-09T13:05:20.671Z,103052.00
2024-01-09T13:07:47.247Z,103051.88
2024-01-09T13:10:14.347Z,103050.06
2024-01-09T13:12:40.956Z,103055.00
2024-01-09T13:15:08.566Z,103050.66
2024-01-09T13:17:35.297Z,103046.63
2024-01-09T13:20:07.887Z,103048.28
2024-01-09T13:23:46.646Z,103049.97
2024-01-09T13:25:22.353Z,103053.41
2024-01-09T13:27:50.562Z,103054.19
2024-01-09T13:32:46.901Z,103050.75
2024-01-09T13:35:13.653Z,103041.47
2024-01-09T13:37:40.852Z,103052.44
2024-01-09T13:40:10.016Z,103056.66
2024-01-09T13:42:36.659Z,103047.44
2024-01-09T13:45:04.017Z,103048.31
2024-01-09T13:47:30.606Z,103045.00
2024-01-09T13:52:27.296Z,103049.44
2024-01-09T13:54:54.873Z,103051.09
2024-01-09T13:57:21.956Z,103046.84
2024-01-09T13:59:48.515Z,103043.50
2024-01-09T14:02:15.090Z,103043.69
2024-01-09T14:04:42.818Z,103035.34
2024-01-09T14:07:12.161Z,103036.28
2024-01-09T14:09:38.845Z,103033.00
2024-01-09T14:12:06.546Z,103028.03
2024-01-09T14:14:35.048Z,103026.41
2024-01-09T14:17:05.051Z,103023.94
2024-01-09T14:19:31.896Z,103018.19
2024-01-09T14:21:58.942Z,103013.25
2024-01-09T14:24:25.521Z,103012.44
2024-01-09T14:26:52.429Z,103013.41
2024-01-09T14:29:19.100Z,103010.19
2024-01-09T14:31:45.711Z,103006.91
2024-01-09T14:34:13.181Z,103006.16
2024-01-09T14:36:41.846Z,103005.47
2024-01-09T14:39:08.356Z,103011.53
2024-01-09T14:41:34.841Z,103008.25
2024-01-09T14:44:02.059Z,103004.16
2024-01-09T14:46:28.807Z,103008.50
2024-01-09T14:48:56.469Z,103000.25
2024-01-09T14:51:23.174Z,102998.69
2024-01-09T14:53:49.701Z,103011.56
2024-01-09T14:56:19.936Z,103001.63
2024-01-09T14:58:46.861Z,103009.41
2024-01-09T15:01:16.470Z,103008.81
2024-01-09T15:03:47.018Z,103003.13
2024-01-09T15:06:13.884Z,103002.53
2024-01-09T15:08:40.671Z,103012.81
2024-01-09T15:11:11.580Z,103013.00
2024-01-09T15:13:38.585Z,103007.31
2024-01-09T15:16:06.822Z,103010.06
2024-01-09T15:18:33.419Z,103011.09
2024-01-09T15:20:59.997Z,103004.47
2024-01-09T15:23:28.147Z,103008.03
2024-01-09T15:25:56.094Z,103004.84
2024-01-09T15:28:22.758Z,103007.59
2024-01-09T15:30:49.385Z,103002.75
2024-01-09T15:33:17.542Z,103004.56
2024-01-09T15:35:45.527Z,103010.69
2024-01-09T15:38:12.123Z,103013.38
2024-01-09T15:40:38.721Z,103011.91
2024-01-09T15:43:05.310Z,103010.41
2024-01-09T15:45:33.153Z,103013.13
2024-01-09T15:48:00.504Z,103009.94
2024-01-09T15:50:28.283Z,103005.91
2024-01-09T15:52:54.985Z,103006.13
2024-01-09T15:55:22.706Z,103007.03
2024-01-09T15:57:49.424Z,103012.22
2024-01-09T16:00:17.612Z,103003.84
2024-01-09T16:02:44.879Z,103003.09
2024-01-09T16:05:12.387Z,103000.66
2024-01-09T16:07:39.228Z,103000.69
2024-01-09T16:10:08.046Z,103003.28
2024-01-09T16:12:34.983Z,103005.03
2024-01-09T16:15:02.103Z,102998.31
2024-01-09T16:17:28.880Z,103001.78
2024-01-09T16:19:55.545Z,102995.09
2024-01-09T16:22:22.140Z,103003.63
2024-01-09T16:24:48.745Z,103005.41
2024-01-09T16:27:15.474Z,103009.72
2024-01-09T16:29:42.015Z,103008.09
2024-01-09T16:32:08.634Z,103018.31
2024-01-09T16:34:35.390Z,103009.06
2024-01-09T16:37:02.078Z,103004.09
2024-01-09T16:39:28.650Z,103009.19
2024-01-09T16:41:56.659Z,103012.66
2024-01-09T16:44:23.752Z,103014.41
2024-01-09T16:46:50.421Z,103018.69
2024-01-09T16:49:17.277Z,103022.09
2024-01-09T16:51:45.442Z,103016.28
2024-01-09T16:54:12.051Z,103019.75
2024-01-09T16:56:38.829Z,103020.63
2024-01-09T16:59:05.446Z,103019.84
2024-01-09T17:01:32.168Z,103029.19
2024-01-09T17:03:59.142Z,103025.13
2024-01-09T17:06:25.957Z,103026.13
2024-01-09T17:08:53.599Z,103027.94
2024-01-09T17:11:20.654Z,103032.22
2024-01-09T17:13:47.834Z,103029.75
2024-01-09T17:16:14.549Z,103033.94
2024-01-09T17:18:42.879Z,103032.22
2024-01-09T17:21:10.732Z,103045.53
2024-01-09T17:23:37.375Z,103042.16
2024-01-09T17:26:04.718Z,103046.34
2024-01-09T17:28:32.489Z,103032.94
2024-01-09T17:30:59.514Z,103042.28
2024-01-09T17:33:26.237Z,103027.25
2024-01-09T17:35:53.096Z,103037.41
2024-01-09T17:38:19.746Z,103031.53
2024-01-09T17:40:46.294Z,103040.78
2024-01-09T17:43:12.856Z,103034.06
2024-01-09T17:45:40.287Z,103017.28
2024-01-09T17:48:08.087Z,103025.69
2024-01-09T17:50:34.767Z,103017.34
2024-01-09T17:53:01.457Z,103020.81
2024-01-09T17:55:28.045Z,103014.16
2024-01-09T17:57:54.696Z,103021.63
2024-01-09T18:00:21.943Z,103019.03
2024-01-09T18:02:48.487Z,103021.53
2024-01-09T18:05:15.236Z,103018.19
2024-01-09T18:07:42.023Z,103011.53
2024-01-09T18:10:09.194Z,103012.41
2024-01-09T18:12:35.986Z,103004.84
2024-01-09T18:15:03.166Z,102999.00
2024-01-09T18:17:33.749Z,102991.44
2024-01-09T18:20:00.642Z,102994.84
2024-01-09T18:22:27.540Z,102994.03
2024-01-09T18:24:54.789Z,102998.25
2024-01-09T18:27:21.315Z,102993.97
2024-01-09T18:29:47.951Z,102997.31
2024-01-09T18:32:16.545Z,102992.28
2024-01-09T18:34:43.235Z,102997.31
2024-01-09T18:37:09.766Z,102984.69
2024-01-09T18:39:37.516Z,102983.06
2024-01-09T18:42:05.078Z,102970.50
2024-01-09T18:44:31.772Z,102984.06
2024-01-09T18:46:58.465Z,102981.69
2024-01-09T18:49:25.758Z,102979.19
2024-01-09T18:51:52.487Z,102973.38
2024-01-09T18:54:19.555Z,102973.38
2024-01-09T18:56:48.725Z,102960.88
2024-01-09T18:59:17.732Z,102969.22
2024-01-09T19:01:44.364Z,102978.44
2024-01-09T19:04:11.196Z,102967.50
2024-01-09T19:06:37.867Z,102968.38
2024-01-09T19:09:08.578Z,102960.84
2024-01-09T19:11:35.976Z,102963.41
2024-01-09T19:14:02.788Z,102963.34
2024-01-09T19:16:29.638Z,102961.66
2024-01-09T19:18:56.739Z,102964.97
2024-01-09T19:21:23.417Z,102963.31
2024-01-09T19:23:49.976Z,102969.94
2024-01-09T19:26:16.702Z,102965.69
2024-01-09T19:28:43.853Z,102969.09
2024-01-09T19:31:10.860Z,102974.09
2024-01-09T19:33:38.445Z,102977.38
2024-01-09T19:36:12.803Z,102972.34
2024-01-09T19:38:41.267Z,102978.16
2024-01-09T19:41:19.047Z,102982.41
2024-01-09T19:43:45.752Z,102980.81
2024-01-09T19:46:12.296Z,102979.16
2024-01-09T19:48:39.116Z,102980.84
2024-01-09T19:51:09.229Z,102982.50
2024-01-09T19:53:36.027Z,102983.41
2024-01-09T19:56:04.276Z,102978.41
2024-01-09T19:58:31.752Z,102980.13
2024-01-09T20:00:58.403Z,102979.31
2024-01-09T20:03:25.002Z,102982.63
2024-01-09T20:05:51.733Z,102984.34
2024-01-09T20:08:18.517Z,102992.78
2024-01-09T20:10:45.465Z,102990.31
2024-01-09T20:13:11.956Z,102987.00
2024-01-09T20:15:38.928Z,102976.97
2024-01-09T20:18:05.958Z,102979.53
2024-01-09T20:20:32.692Z,102981.25
2024-01-09T20:22:59.457Z,102985.53
2024-01-09T20:25:27.087Z,102974.63
2024-01-09T20:27:57.991Z,102990.66
2024-01-09T20:30:24.728Z,102967.22
2024-01-09T20:32:51.433Z,102972.19
2024-01-09T20:35:20.137Z,102979.69
2024-01-09T20:37:46.722Z,102990.63
2024-01-09T20:40:13.588Z,102986.44
2024-01-09T20:42:40.083Z,102991.50
2024-01-09T20:45:07.282Z,102986.53
2024-01-09T20:47:35.144Z,102982.38
2024-01-09T20:50:02.439Z,102982.34
2024-01-09T20:52:29.425Z,102986.63
2024-01-09T20:54:56.198Z,102979.13
2024-01-09T20:57:22.748Z,102978.31
2024-01-09T20:59:49.282Z,102977.56
2024-01-09T21:02:16.990Z,102975.06
2024-01-09T21:04:44.059Z,102974.28
2024-01-09T21:11:27.647Z,102976.81
